METAR TAF

[Source: ADDS]
METAR
LFCR 230330Z AUTO 27014KT 9999 BKN008 OVC012 03/02 Q1006 TEMPO 4000 RA BKN004 SCT015TCU =
LFCR 222300Z 2300/2324 27012KT 9999 OVC007 PROB40 TEMPO 2300/2305 4000 SHRA BKN004 SCT015TCU PROB30 TEMPO 2300/2305 2000 SHRASN BKN002 TEMPO 2305/2311 4000 RA OVC011 PROB40 TEMPO 2311/2318 29015G25KT 4000 SHRA BKN012 SCT015TCU BECMG 2318/2321 VRB03KT 3000 -SN OVC003 LFBA 230330Z AUTO 22008KT 180V250 9999 FEW044 BKN056 OVC068 07/05 Q1007 =
LFBA 221700Z 2218/2303 26015G25KT 9999 BKN050 TEMPO 2218/2303 26015G25KT 3000 SHRA BKN010 FEW020CB BKN025TCU LFSL 230330Z AUTO 20005KT 150V240 9999 OVC005 04/04 Q1005 TEMPO 3000 RA =
LFSL 230200Z 2303/2312 23006KT 9999 OVC007 TEMPO 2303/2306 3000 RA OVC004 BECMG 2306/2308 22015G25KT BECMG 2310/2312 BKN012 TEMPO 2306/2312 4000 RA
TAF
LFCR 222300Z 2300/2324 27012KT 9999 OVC007 PROB40 TEMPO 2300/2305 4000 SHRA BKN004 SCT015TCU PROB30 TEMPO 2300/2305 2000 SHRASN BKN002 TEMPO 2305/2311 4000 RA OVC011 PROB40 TEMPO 2311/2318 29015G25KT 4000 SHRA BKN012 SCT015TCU BECMG 2318/2321 VRB03KT 3000 -SN OVC003 =
LFBA 221700Z 2218/2303 26015G25KT 9999 BKN050 TEMPO 2218/2303 26015G25KT 3000 SHRA BKN010 FEW020CB BKN025TCU =
LFSL 230200Z 2303/2312 23006KT 9999 OVC007 TEMPO 2303/2306 3000 RA OVC004 BECMG 2306/2308 22015G25KT BECMG 2310/2312 BKN012 TEMPO 2306/2312 4000 RA =
SR / SS: 07:20 / 16:51 UTC (LFCC 2021-01-23)